Time;durP1;ratioP1;P1;durP2;ratioP2;P2;SDS_P1;SDS_P2;PMS_P1;PMS_P2;Temp;Humidity;BMP_temperature;BMP_pressure;BME280_temperature;BME280_humidity;BME280_pressure;Samples;Min_cycle;Max_cycle;Signal;HPM_P1;HPM_P2
2022/10/27 00:02:20;;;;;;;8.70;4.80;;;14.60;99.90;;;;;;5053501;28;20184;-72
2022/10/27 00:04:45;;;;;;;10.30;5.17;;;14.60;99.90;;;;;;5053487;28;20174;-72
2022/10/27 00:07:11;;;;;;;8.20;5.07;;;14.50;99.90;;;;;;5053555;28;20192;-72
2022/10/27 00:09:36;;;;;;;8.53;4.70;;;14.60;99.90;;;;;;5053542;28;20169;-72
2022/10/27 00:12:02;;;;;;;12.50;5.77;;;14.50;99.90;;;;;;5053767;28;20245;-72
2022/10/27 00:14:28;;;;;;;9.77;4.70;;;14.50;99.90;;;;;;5053669;28;20167;-72
2022/10/27 00:16:55;;;;;;;8.50;4.57;;;14.50;99.90;;;;;;5035737;28;20303;-72
2022/10/27 00:19:22;;;;;;;5.57;4.83;;;14.40;99.90;;;;;;5053027;28;20194;-72
2022/10/27 00:21:49;;;;;;;9.70;4.90;;;14.40;99.90;;;;;;5053699;28;20410;-72
2022/10/27 00:24:15;;;;;;;5.70;4.60;;;14.40;99.90;;;;;;5053521;28;20456;-72
2022/10/27 00:26:40;;;;;;;9.80;4.73;;;14.40;99.90;;;;;;5053294;28;20807;-72
2022/10/27 00:29:06;;;;;;;7.10;5.80;;;14.30;99.90;;;;;;5053104;28;20214;-72
2022/10/27 00:31:31;;;;;;;7.63;4.83;;;14.30;99.90;;;;;;5052852;28;20173;-71
2022/10/27 00:33:57;;;;;;;10.20;5.07;;;14.20;99.90;;;;;;5052792;28;20222;-72
2022/10/27 00:36:24;;;;;;;10.70;6.00;;;14.20;99.90;;;;;;5052992;28;20170;-72
2022/10/27 00:38:57;;;;;;;13.20;5.60;;;14.20;99.90;;;;;;5053238;28;20176;-72
2022/10/27 00:41:35;;;;;;;12.20;5.70;;;14.10;99.90;;;;;;5053047;28;20401;-72
2022/10/27 00:44:41;;;;;;;9.77;5.30;;;14.20;99.90;;;;;;5052259;28;20413;-72
2022/10/27 00:47:25;;;;;;;9.40;5.03;;;14.20;99.90;;;;;;5052391;28;21008;-72
2022/10/27 00:50:02;;;;;;;9.70;4.80;;;14.30;99.90;;;;;;5052597;28;20733;-72
2022/10/27 00:52:35;;;;;;;8.13;4.30;;;14.20;99.90;;;;;;5040795;28;20398;-72
2022/10/27 00:55:06;;;;;;;9.57;5.00;;;14.30;99.90;;;;;;5052836;28;21003;-72
2022/10/27 00:57:33;;;;;;;13.33;5.23;;;14.20;99.90;;;;;;5051268;28;20466;-72
2022/10/27 01:00:03;;;;;;;10.87;4.40;;;14.10;99.90;;;;;;5052837;28;20416;-72
2022/10/27 01:02:30;;;;;;;9.47;5.30;;;14.10;99.90;;;;;;5052119;28;20427;-72
2022/10/27 01:05:18;;;;;;;10.40;5.97;;;14.00;99.90;;;;;;5052279;28;20409;-72
2022/10/27 01:07:45;;;;;;;9.47;5.00;;;14.00;99.90;;;;;;5052314;28;20992;-72
2022/10/27 01:10:12;;;;;;;10.57;6.10;;;14.00;99.90;;;;;;5052475;28;20404;-72
2022/10/27 01:12:39;;;;;;;9.00;5.10;;;14.00;99.90;;;;;;5052663;28;20401;-72
2022/10/27 01:15:06;;;;;;;9.93;4.93;;;14.10;99.90;;;;;;5052619;28;20508;-72
2022/10/27 01:17:50;;;;;;;9.83;5.17;;;14.10;99.90;;;;;;5051906;28;20462;-72
2022/10/27 01:20:15;;;;;;;8.17;5.37;;;14.00;99.90;;;;;;5045558;28;20429;-72
2022/10/27 01:22:59;;;;;;;8.73;5.63;;;13.90;99.90;;;;;;5022764;28;20419;-72
2022/10/27 01:25:46;;;;;;;5.90;4.43;;;14.00;99.90;;;;;;5032573;28;20169;-72
2022/10/27 01:28:17;;;;;;;10.83;5.17;;;14.00;99.90;;;;;;5032367;28;20465;-72
2022/10/27 01:31:10;;;;;;;10.27;6.53;;;14.00;99.90;;;;;;5032411;28;20922;-71
2022/10/27 01:33:45;;;;;;;9.67;5.90;;;13.90;99.90;;;;;;5028077;28;20440;-72
2022/10/27 01:36:22;;;;;;;13.87;6.70;;;13.80;99.90;;;;;;5032323;28;20758;-71
2022/10/27 01:38:57;;;;;;;7.07;5.47;;;13.90;99.90;;;;;;5032491;28;20389;-72
2022/10/27 01:41:31;;;;;;;10.13;5.03;;;13.90;99.90;;;;;;5032006;28;20429;-71
2022/10/27 01:44:01;;;;;;;12.77;5.17;;;13.90;99.90;;;;;;5032625;28;20472;-71
2022/10/27 01:46:27;;;;;;;9.47;6.33;;;13.90;99.90;;;;;;5031999;28;20421;-72
2022/10/27 01:48:53;;;;;;;11.10;6.50;;;13.80;99.90;;;;;;5030504;28;20486;-72
2022/10/27 01:51:19;;;;;;;8.17;4.80;;;13.70;99.90;;;;;;5032818;28;20419;-72
2022/10/27 01:53:47;;;;;;;10.33;5.07;;;13.80;99.90;;;;;;5032552;28;20406;-72
2022/10/27 01:56:48;;;;;;;8.40;5.40;;;13.80;99.90;;;;;;5052068;28;20182;-71
2022/10/27 01:59:31;;;;;;;12.53;6.40;;;13.80;99.90;;;;;;5056203;28;20482;-73
2022/10/27 02:02:45;;;;;;;9.27;6.20;;;13.80;99.90;;;;;;5055612;28;20780;-71
2022/10/27 02:05:32;;;;;;;8.80;5.30;;;13.90;99.90;;;;;;5042033;28;20428;-72
2022/10/27 02:08:03;;;;;;;10.00;5.13;;;13.70;99.90;;;;;;5055555;28;20510;-72
2022/10/27 02:10:39;;;;;;;7.30;5.40;;;13.70;99.90;;;;;;5055677;28;20408;-72
2022/10/27 02:13:05;;;;;;;7.77;4.80;;;13.60;99.90;;;;;;5056002;28;20398;-72
2022/10/27 02:15:35;;;;;;;6.50;5.17;;;13.60;99.90;;;;;;5055492;28;20408;-72
2022/10/27 02:18:15;;;;;;;8.50;5.70;;;13.60;99.90;;;;;;5055132;28;20516;-72
2022/10/27 02:20:45;;;;;;;12.40;5.97;;;13.70;99.90;;;;;;5055562;28;20411;-72
2022/10/27 02:23:15;;;;;;;12.77;6.17;;;13.70;99.90;;;;;;5055614;28;20456;-72
2022/10/27 02:25:55;;;;;;;9.83;5.20;;;13.60;99.90;;;;;;5055776;28;20402;-72
2022/10/27 02:28:26;;;;;;;7.83;6.20;;;13.60;99.90;;;;;;5055604;28;20476;-71
2022/10/27 02:30:55;;;;;;;9.70;5.60;;;13.60;99.90;;;;;;5055390;28;20413;-75
2022/10/27 02:33:20;;;;;;;9.83;5.17;;;13.60;99.90;;;;;;5055407;28;20820;-72
2022/10/27 02:35:46;;;;;;;10.80;6.70;;;13.50;99.90;;;;;;5055940;28;20402;-71
2022/10/27 02:38:12;;;;;;;7.17;5.60;;;13.50;99.90;;;;;;5055450;28;20249;-72
2022/10/27 02:40:38;;;;;;;10.57;7.13;;;13.50;99.90;;;;;;5055130;28;20520;-72
2022/10/27 02:43:03;;;;;;;9.53;5.10;;;13.40;99.90;;;;;;5054996;28;20417;-72
2022/10/27 02:45:29;;;;;;;8.00;6.17;;;13.40;99.90;;;;;;5054827;28;20224;-72
2022/10/27 02:47:55;;;;;;;6.40;5.00;;;13.40;99.90;;;;;;5054528;28;20226;-72
2022/10/27 02:50:20;;;;;;;10.17;5.77;;;13.40;99.90;;;;;;5054968;28;20166;-71
2022/10/27 02:52:46;;;;;;;8.97;7.50;;;13.40;99.90;;;;;;5054827;28;20223;-72
2022/10/27 02:55:11;;;;;;;10.50;6.90;;;13.40;99.90;;;;;;5055275;28;20179;-72
2022/10/27 02:57:37;;;;;;;13.80;6.80;;;13.40;99.90;;;;;;5054677;28;20273;-72
2022/10/27 03:00:04;;;;;;;10.53;6.10;;;13.30;99.90;;;;;;5055060;28;20175;-72
2022/10/27 03:02:29;;;;;;;11.90;6.20;;;13.30;99.90;;;;;;5054498;28;20648;-72
2022/10/27 03:04:56;;;;;;;7.77;5.47;;;13.30;99.90;;;;;;5054258;28;20427;-72
2022/10/27 03:07:23;;;;;;;9.43;6.50;;;13.30;99.90;;;;;;5053587;28;20675;-72
2022/10/27 03:09:48;;;;;;;10.30;6.93;;;13.30;99.90;;;;;;5054562;28;20798;-72
2022/10/27 03:12:14;;;;;;;7.57;6.60;;;13.20;99.90;;;;;;5054553;28;20403;-72
2022/10/27 03:14:39;;;;;;;11.20;6.47;;;13.10;99.90;;;;;;5054589;28;20614;-72
2022/10/27 03:17:05;;;;;;;10.43;6.70;;;13.00;99.90;;;;;;5054344;28;20193;-72
2022/10/27 03:19:30;;;;;;;8.50;5.73;;;13.00;99.90;;;;;;5054079;28;20169;-71
2022/10/27 03:21:56;;;;;;;9.43;5.83;;;13.00;99.90;;;;;;5054690;28;20180;-72
2022/10/27 03:24:21;;;;;;;7.50;5.90;;;13.10;99.90;;;;;;5054143;28;20185;-72
2022/10/27 03:26:47;;;;;;;9.20;6.30;;;13.10;99.90;;;;;;5054353;28;20343;-72
2022/10/27 03:29:12;;;;;;;8.00;6.97;;;13.00;99.90;;;;;;5054227;28;20199;-71
2022/10/27 03:31:38;;;;;;;11.47;6.63;;;12.90;99.90;;;;;;5053944;28;20184;-72
2022/10/27 03:34:04;;;;;;;7.53;5.90;;;12.80;99.90;;;;;;5053999;28;20163;-70
2022/10/27 03:36:29;;;;;;;9.80;6.43;;;12.90;99.90;;;;;;5054025;28;20174;-71
2022/10/27 03:38:55;;;;;;;8.40;6.27;;;13.00;99.90;;;;;;5054015;28;20696;-71
2022/10/27 03:41:20;;;;;;;13.10;7.50;;;12.90;99.90;;;;;;5054066;28;20221;-72
2022/10/27 03:43:46;;;;;;;16.43;6.83;;;12.80;99.90;;;;;;5036187;28;20717;-72
2022/10/27 03:46:11;;;;;;;9.20;6.10;;;12.80;99.90;;;;;;5053895;28;20173;-72
2022/10/27 03:48:38;;;;;;;7.97;6.90;;;12.80;99.90;;;;;;5053520;28;20541;-72
2022/10/27 03:51:03;;;;;;;14.97;7.80;;;12.80;99.90;;;;;;5053963;28;20250;-72
2022/10/27 03:53:29;;;;;;;11.03;6.23;;;12.90;99.90;;;;;;5053713;28;20533;-72
2022/10/27 03:55:54;;;;;;;10.23;7.10;;;12.90;99.90;;;;;;5053195;28;20170;-72
2022/10/27 03:58:20;;;;;;;9.37;7.70;;;12.90;99.90;;;;;;5053770;28;20565;-71
2022/10/27 04:00:46;;;;;;;9.20;7.37;;;12.80;99.90;;;;;;5053882;28;20545;-72
2022/10/27 04:03:12;;;;;;;11.23;7.33;;;12.80;99.90;;;;;;5053237;28;20173;-72
2022/10/27 04:05:37;;;;;;;12.80;6.97;;;12.80;99.90;;;;;;5053804;28;20209;-72
2022/10/27 04:08:03;;;;;;;9.30;6.60;;;12.90;99.90;;;;;;5053466;28;20556;-72
2022/10/27 04:10:29;;;;;;;8.10;5.13;;;12.90;99.90;;;;;;5053789;28;20530;-72
2022/10/27 04:12:56;;;;;;;8.83;6.30;;;12.90;99.90;;;;;;5050358;28;20259;-72
2022/10/27 04:15:23;;;;;;;10.83;7.83;;;12.90;99.90;;;;;;5044738;28;20178;-71
2022/10/27 04:17:52;;;;;;;10.93;7.00;;;12.90;99.90;;;;;;5053175;28;20463;-72
2022/10/27 04:20:17;;;;;;;11.00;8.73;;;12.90;99.90;;;;;;5053290;28;20474;-72
2022/10/27 04:22:43;;;;;;;13.10;8.87;;;12.70;99.90;;;;;;5054461;28;20867;-72
2022/10/27 04:25:09;;;;;;;9.10;6.37;;;12.70;99.90;;;;;;5053661;28;20516;-72
2022/10/27 04:27:34;;;;;;;10.57;6.60;;;12.70;99.90;;;;;;5053467;28;20237;-72
2022/10/27 04:30:00;;;;;;;8.83;6.10;;;12.70;99.90;;;;;;5053482;28;20570;-72
2022/10/27 04:32:25;;;;;;;10.93;7.43;;;12.70;99.90;;;;;;5051864;28;20174;-72
2022/10/27 04:34:51;;;;;;;7.20;6.50;;;12.70;99.90;;;;;;5052861;28;20230;-72
2022/10/27 04:37:16;;;;;;;9.60;7.33;;;12.70;99.90;;;;;;5053024;28;20187;-72
2022/10/27 04:39:42;;;;;;;8.67;6.70;;;12.60;99.90;;;;;;5053062;28;20256;-72
2022/10/27 04:42:09;;;;;;;9.30;6.80;;;12.50;99.90;;;;;;5052897;28;20216;-72
2022/10/27 04:44:35;;;;;;;12.53;8.07;;;12.60;99.90;;;;;;5052786;28;20433;-71
2022/10/27 04:47:00;;;;;;;10.97;6.47;;;12.70;99.90;;;;;;5052424;28;20500;-72
2022/10/27 04:49:26;;;;;;;11.13;7.97;;;12.70;99.90;;;;;;5052475;28;20172;-72
2022/10/27 04:51:51;;;;;;;7.40;6.43;;;12.80;99.90;;;;;;5052757;28;20161;-72
2022/10/27 04:54:17;;;;;;;11.90;7.80;;;12.70;99.90;;;;;;5052646;28;20552;-71
2022/10/27 04:56:42;;;;;;;14.50;7.70;;;12.70;99.90;;;;;;5052581;28;20192;-72
2022/10/27 04:59:08;;;;;;;14.63;7.07;;;12.70;99.90;;;;;;5034823;28;20661;-71
2022/10/27 05:01:33;;;;;;;14.43;8.37;;;12.60;99.90;;;;;;5052453;28;20638;-72
2022/10/27 05:03:59;;;;;;;14.30;8.70;;;12.60;99.90;;;;;;5052540;28;20175;-72
2022/10/27 05:06:25;;;;;;;8.23;7.20;;;12.70;99.90;;;;;;5052450;28;20233;-72
2022/10/27 05:08:50;;;;;;;10.70;8.43;;;12.70;99.90;;;;;;5052326;28;20631;-72
2022/10/27 05:11:16;;;;;;;9.20;7.10;;;12.70;99.90;;;;;;5052452;28;20178;-72
2022/10/27 05:13:41;;;;;;;10.23;8.13;;;12.70;99.90;;;;;;5052286;28;20253;-71
2022/10/27 05:16:07;;;;;;;10.50;7.43;;;12.60;99.90;;;;;;5052364;28;20250;-72
2022/10/27 05:18:33;;;;;;;10.10;7.93;;;12.60;99.90;;;;;;5051513;28;20206;-70
2022/10/27 05:20:58;;;;;;;9.30;6.83;;;12.70;99.90;;;;;;5052238;28;20417;-71
2022/10/27 05:23:25;;;;;;;11.47;6.77;;;12.70;99.90;;;;;;5052407;28;20175;-71
2022/10/27 05:25:52;;;;;;;8.30;7.17;;;12.70;99.90;;;;;;5052515;28;20193;-72
2022/10/27 05:28:18;;;;;;;11.03;7.00;;;12.70;99.90;;;;;;5052223;28;20927;-72
2022/10/27 05:30:43;;;;;;;8.13;6.80;;;12.80;99.90;;;;;;5053947;28;20433;-73
2022/10/27 05:33:09;;;;;;;15.00;9.33;;;12.70;99.90;;;;;;5055259;28;20177;-72
2022/10/27 05:35:34;;;;;;;8.87;6.83;;;12.70;99.90;;;;;;5055876;28;20171;-73
2022/10/27 05:38:00;;;;;;;10.37;7.40;;;12.60;99.90;;;;;;5056170;28;20193;-73
2022/10/27 05:40:26;;;;;;;9.80;6.60;;;12.60;99.90;;;;;;5056228;28;20213;-72
2022/10/27 05:42:54;;;;;;;12.47;7.50;;;12.60;99.90;;;;;;5056451;28;20637;-73
2022/10/27 05:45:21;;;;;;;9.20;6.30;;;12.60;99.90;;;;;;5055938;28;20167;-73
2022/10/27 05:47:46;;;;;;;10.33;7.90;;;12.60;99.90;;;;;;5056094;28;20457;-72
2022/10/27 05:50:12;;;;;;;9.87;8.57;;;12.60;99.90;;;;;;5055613;28;20406;-73
2022/10/27 05:52:38;;;;;;;12.50;7.20;;;12.70;99.90;;;;;;5056055;28;20205;-72
2022/10/27 05:55:04;;;;;;;11.07;6.60;;;12.70;99.90;;;;;;5056048;28;20220;-72
2022/10/27 05:57:29;;;;;;;11.67;7.80;;;12.80;99.90;;;;;;5037623;28;20281;-72
2022/10/27 05:59:55;;;;;;;11.17;8.57;;;12.80;99.90;;;;;;5055632;28;20167;-72
2022/10/27 06:02:20;;;;;;;15.23;9.50;;;12.80;99.90;;;;;;5055397;28;20177;-73
2022/10/27 06:04:46;;;;;;;10.07;7.50;;;12.80;99.90;;;;;;5054754;28;20673;-72
2022/10/27 06:07:11;;;;;;;8.53;5.93;;;12.80;99.90;;;;;;5054761;28;20198;-74
2022/10/27 06:09:37;;;;;;;12.37;7.60;;;12.80;99.90;;;;;;5055562;28;20164;-72
2022/10/27 06:12:02;;;;;;;10.20;7.83;;;12.80;99.90;;;;;;5055887;28;20163;-72
2022/10/27 06:14:28;;;;;;;10.23;7.33;;;12.80;99.90;;;;;;5055521;28;20250;-72
2022/10/27 06:16:53;;;;;;;13.43;9.10;;;12.80;99.90;;;;;;5037173;28;20209;-73
2022/10/27 06:19:19;;;;;;;13.93;7.50;;;12.90;99.90;;;;;;5055202;28;20180;-73
2022/10/27 06:21:45;;;;;;;8.27;7.37;;;12.90;99.90;;;;;;5055720;28;20168;-72
2022/10/27 06:24:10;;;;;;;12.80;9.90;;;13.00;99.90;;;;;;5055333;28;20244;-72
2022/10/27 06:26:36;;;;;;;13.13;9.17;;;13.00;99.90;;;;;;5055700;28;20207;-72
2022/10/27 06:29:01;;;;;;;12.63;9.00;;;13.00;99.90;;;;;;5037334;28;20192;-72
2022/10/27 06:31:27;;;;;;;11.10;8.50;;;13.00;99.90;;;;;;5054432;28;20165;-73
2022/10/27 06:33:53;;;;;;;11.70;9.30;;;13.00;99.90;;;;;;5054961;28;20229;-73
2022/10/27 06:36:18;;;;;;;14.93;9.20;;;13.10;99.90;;;;;;5055270;28;20192;-71
2022/10/27 06:38:44;;;;;;;14.20;10.53;;;13.10;99.90;;;;;;5055480;28;20180;-73
2022/10/27 06:41:09;;;;;;;11.63;8.70;;;13.20;99.90;;;;;;5054740;28;20184;-72
2022/10/27 06:43:35;;;;;;;27.00;12.70;;;13.20;99.90;;;;;;5054611;28;20537;-72
2022/10/27 06:46:00;;;;;;;14.47;8.83;;;13.20;99.90;;;;;;5054939;28;20199;-73
2022/10/27 06:48:26;;;;;;;11.03;7.93;;;13.30;99.90;;;;;;5054529;28;20233;-73
2022/10/27 06:50:51;;;;;;;34.67;13.17;;;13.20;99.90;;;;;;5054511;28;20182;-73
2022/10/27 06:53:17;;;;;;;21.50;9.17;;;13.10;99.90;;;;;;5054890;28;20164;-72
2022/10/27 06:55:42;;;;;;;20.67;10.00;;;13.10;99.90;;;;;;5054871;28;20638;-73
2022/10/27 06:58:09;;;;;;;18.37;11.40;;;13.10;99.90;;;;;;5055180;28;20659;-73
2022/10/27 07:00:36;;;;;;;15.53;10.43;;;13.20;99.90;;;;;;5055023;28;20489;-72
2022/10/27 07:03:07;;;;;;;14.10;9.10;;;13.10;99.90;;;;;;5054820;28;20274;-73
2022/10/27 07:05:33;;;;;;;11.60;8.60;;;13.20;99.90;;;;;;5050972;28;20434;-73
2022/10/27 07:07:58;;;;;;;10.00;7.80;;;13.30;99.90;;;;;;5027810;28;20825;-70
2022/10/27 07:10:24;;;;;;;12.90;8.30;;;13.20;99.90;;;;;;5055322;28;20301;-70
2022/10/27 07:13:00;;;;;;;13.60;10.77;;;13.30;99.90;;;;;;5054658;28;20577;-73
2022/10/27 07:15:32;;;;;;;12.53;8.97;;;13.30;99.90;;;;;;5054603;28;20260;-73
2022/10/27 07:18:01;;;;;;;14.13;9.23;;;13.30;99.90;;;;;;5053839;28;20459;-74
2022/10/27 07:20:28;;;;;;;15.00;10.70;;;13.40;99.90;;;;;;5052733;28;20505;-74
2022/10/27 07:22:54;;;;;;;11.20;8.03;;;13.40;99.90;;;;;;5053665;28;20794;-70
2022/10/27 07:25:20;;;;;;;12.43;11.13;;;13.40;99.90;;;;;;5053803;28;20886;-71
2022/10/27 07:27:52;;;;;;;12.63;8.40;;;13.50;99.90;;;;;;5053838;28;20457;-74
2022/10/27 07:30:19;;;;;;;12.50;9.90;;;13.60;99.90;;;;;;5053393;28;20236;-73
2022/10/27 07:32:45;;;;;;;13.37;7.87;;;13.70;99.90;;;;;;5051881;28;20434;-72
2022/10/27 07:35:10;;;;;;;11.43;8.33;;;13.80;99.90;;;;;;5053199;28;20916;-72
2022/10/27 07:37:41;;;;;;;10.60;7.90;;;13.80;99.90;;;;;;5053166;28;20198;-72
2022/10/27 07:40:08;;;;;;;8.00;7.20;;;13.90;99.90;;;;;;5053052;28;20173;-73
2022/10/27 07:42:47;;;;;;;11.80;10.17;;;14.10;99.90;;;;;;5053103;28;20420;-71
2022/10/27 07:45:15;;;;;;;10.97;7.70;;;14.30;99.90;;;;;;5052900;28;20529;-72
2022/10/27 07:47:44;;;;;;;9.17;7.83;;;14.30;99.90;;;;;;5052284;28;20470;-73
2022/10/27 07:50:10;;;;;;;11.37;9.03;;;14.40;99.90;;;;;;5052754;28;20774;-72
2022/10/27 07:52:41;;;;;;;11.60;9.87;;;14.40;99.90;;;;;;5052780;28;20420;-71
2022/10/27 07:55:06;;;;;;;10.27;8.97;;;14.50;99.90;;;;;;5052995;28;20495;-71
2022/10/27 07:57:32;;;;;;;15.03;12.60;;;14.50;99.90;;;;;;5052256;28;20447;-71
2022/10/27 07:59:58;;;;;;;9.70;8.70;;;14.60;99.90;;;;;;5052967;28;20413;-71
2022/10/27 08:02:23;;;;;;;13.53;10.70;;;14.60;99.90;;;;;;5052154;28;20176;-71
2022/10/27 08:04:49;;;;;;;14.93;9.63;;;14.60;99.90;;;;;;5052780;28;20582;-71
2022/10/27 08:07:14;;;;;;;22.37;16.20;;;14.60;99.90;;;;;;5052708;28;20309;-71
2022/10/27 08:09:40;;;;;;;13.50;10.40;;;14.70;99.90;;;;;;5052915;28;20577;-72
2022/10/27 08:12:06;;;;;;;11.90;9.37;;;14.70;99.90;;;;;;5052949;28;20168;-70
2022/10/27 08:14:32;;;;;;;12.27;10.10;;;14.80;99.90;;;;;;5051898;28;20915;-70
2022/10/27 08:16:57;;;;;;;13.63;9.67;;;14.80;99.90;;;;;;5052436;28;20429;-72
2022/10/27 08:19:23;;;;;;;19.60;12.20;;;14.70;99.90;;;;;;5016506;28;1049813;-72
2022/10/27 08:21:49;;;;;;;14.00;12.50;;;14.80;99.90;;;;;;5053249;28;20229;-73
2022/10/27 08:24:15;;;;;;;15.40;10.30;;;14.90;99.90;;;;;;5053538;28;20180;-73
2022/10/27 08:26:40;;;;;;;14.10;9.10;;;15.10;99.90;;;;;;5053484;28;20438;-72
2022/10/27 08:29:06;;;;;;;17.97;11.17;;;15.20;99.90;;;;;;5052983;28;20208;-73
2022/10/27 08:31:31;;;;;;;12.47;9.27;;;15.30;99.90;;;;;;5052838;28;20167;-73
2022/10/27 08:33:57;;;;;;;14.37;9.90;;;15.40;99.90;;;;;;5052617;28;20171;-70
2022/10/27 08:36:22;;;;;;;14.30;10.70;;;15.50;99.90;;;;;;5052959;28;20538;-72
2022/10/27 08:38:48;;;;;;;17.50;9.70;;;15.60;99.90;;;;;;5052268;28;20543;-73
2022/10/27 08:41:19;;;;;;;12.83;10.50;;;15.70;99.90;;;;;;5052852;28;20245;-72
2022/10/27 08:44:11;;;;;;;8.13;6.90;;;15.80;99.90;;;;;;5053169;28;20174;-72
2022/10/27 08:46:58;;;;;;;12.80;7.73;;;16.00;99.90;;;;;;5053049;28;20460;-72
2022/10/27 08:49:38;;;;;;;13.70;9.53;;;16.00;99.90;;;;;;5052766;28;20495;-73
2022/10/27 08:52:09;;;;;;;11.63;10.40;;;15.90;99.90;;;;;;5034754;28;20886;-73
2022/10/27 08:54:35;;;;;;;19.23;10.93;;;16.00;99.90;;;;;;5052299;28;20392;-73
2022/10/27 08:57:03;;;;;;;15.97;10.20;;;16.20;99.90;;;;;;5051400;28;20447;-73
2022/10/27 08:59:30;;;;;;;13.80;9.63;;;16.30;99.90;;;;;;5052311;28;20205;-71
2022/10/27 09:02:24;;;;;;;14.10;9.30;;;16.30;99.90;;;;;;5052609;28;20491;-72
2022/10/27 09:05:06;;;;;;;17.13;10.30;;;16.20;99.90;;;;;;5051332;28;20420;-71
2022/10/27 09:07:44;;;;;;;15.53;9.93;;;16.20;99.90;;;;;;5052297;28;20478;-71
2022/10/27 09:10:29;;;;;;;9.43;7.90;;;16.20;99.90;;;;;;5052603;28;20391;-71
2022/10/27 09:13:17;;;;;;;10.23;7.83;;;16.30;99.90;;;;;;5052000;28;20385;-71
2022/10/27 09:15:51;;;;;;;10.13;7.50;;;16.10;99.90;;;;;;5052758;28;20791;-71
2022/10/27 09:18:33;;;;;;;15.37;7.73;;;16.10;99.90;;;;;;5052155;28;20444;-71
2022/10/27 09:21:04;;;;;;;11.93;7.97;;;16.20;99.90;;;;;;5052718;28;20459;-71
2022/10/27 09:23:37;;;;;;;10.20;7.50;;;16.40;99.90;;;;;;5052635;28;20392;-72
2022/10/27 09:26:03;;;;;;;9.73;7.30;;;16.70;99.90;;;;;;5052708;28;20385;-72
2022/10/27 09:28:50;;;;;;;9.97;7.80;;;16.90;99.90;;;;;;5051546;28;20798;-73
2022/10/27 09:31:20;;;;;;;8.60;6.40;;;17.10;99.90;;;;;;5052500;28;20393;-72
2022/10/27 09:34:15;;;;;;;7.00;6.30;;;17.20;99.90;;;;;;5052137;28;20449;-71
2022/10/27 09:36:40;;;;;;;7.43;6.20;;;17.40;99.90;;;;;;5052507;28;20942;-72
2022/10/27 09:39:07;;;;;;;7.27;5.77;;;17.50;99.90;;;;;;5052295;28;20409;-71
2022/10/27 09:41:33;;;;;;;10.97;6.77;;;17.40;99.90;;;;;;5052665;28;20551;-73
2022/10/27 09:43:59;;;;;;;7.10;6.17;;;17.50;99.90;;;;;;5052173;28;20417;-74
2022/10/27 09:46:28;;;;;;;8.73;5.83;;;17.50;99.90;;;;;;5052205;28;20220;-72
2022/10/27 09:48:57;;;;;;;9.80;6.20;;;17.60;99.90;;;;;;5052185;28;20461;-73
2022/10/27 09:51:29;;;;;;;7.60;6.40;;;17.60;99.90;;;;;;5052018;28;20450;-72
2022/10/27 09:53:54;;;;;;;7.80;5.77;;;17.80;99.90;;;;;;5052122;28;20433;-72
2022/10/27 09:56:37;;;;;;;10.10;6.03;;;17.90;99.90;;;;;;5052026;28;20846;-72
2022/10/27 09:59:06;;;;;;;6.33;5.40;;;18.00;99.90;;;;;;5043702;28;20171;-72
2022/10/27 10:01:44;;;;;;;8.50;5.30;;;18.20;99.90;;;;;;5047038;28;20851;-72
2022/10/27 10:04:28;;;;;;;9.97;5.50;;;18.20;99.90;;;;;;5051310;28;20413;-74
2022/10/27 10:07:00;;;;;;;7.13;5.80;;;18.20;99.90;;;;;;5051721;28;20424;-73
2022/10/27 10:09:38;;;;;;;13.50;5.93;;;18.20;99.90;;;;;;5051705;28;20432;-73
2022/10/27 10:12:33;;;;;;;7.73;5.80;;;18.30;99.90;;;;;;5054126;28;20450;-72
2022/10/27 10:15:10;;;;;;;7.93;5.47;;;18.50;99.90;;;;;;5034214;28;20419;-72
2022/10/27 10:17:38;;;;;;;11.73;7.67;;;18.70;99.90;;;;;;5054351;28;20444;-72
2022/10/27 10:20:06;;;;;;;8.77;5.67;;;18.80;99.90;;;;;;5054440;28;20424;-70
2022/10/27 10:22:34;;;;;;;10.60;5.67;;;18.90;99.90;;;;;;5055354;28;20405;-70
2022/10/27 10:25:19;;;;;;;8.07;5.60;;;18.90;99.90;;;;;;5054626;28;20582;-71
2022/10/27 10:27:54;;;;;;;10.00;5.83;;;19.10;99.90;;;;;;5054956;28;20528;-71
2022/10/27 10:30:20;;;;;;;9.03;5.17;;;19.10;99.90;;;;;;5055145;28;20447;-72
2022/10/27 10:32:50;;;;;;;10.07;5.57;;;19.10;99.90;;;;;;5037137;28;20453;-72
2022/10/27 10:35:39;;;;;;;10.77;5.80;;;19.20;99.90;;;;;;5054922;28;20312;-71
2022/10/27 10:38:28;;;;;;;10.20;4.50;;;19.20;99.90;;;;;;5054869;28;20805;-71
2022/10/27 10:41:11;;;;;;;8.53;6.00;;;19.30;99.90;;;;;;5055401;28;20405;-70
2022/10/27 10:43:38;;;;;;;9.30;5.20;;;19.50;99.90;;;;;;5054831;28;20480;-71
2022/10/27 10:46:05;;;;;;;6.43;4.63;;;19.60;99.90;;;;;;5055108;28;20409;-71
2022/10/27 10:48:34;;;;;;;12.40;5.03;;;20.30;99.90;;;;;;5054369;28;20461;-71
2022/10/27 10:51:00;;;;;;;13.90;8.10;;;22.10;99.90;;;;;;5055102;28;20737;-71
2022/10/27 10:53:33;;;;;;;10.90;5.10;;;23.90;99.90;;;;;;5054942;28;20401;-72
2022/10/27 10:56:18;;;;;;;5.33;3.60;;;26.20;99.90;;;;;;5055021;28;20167;-71
2022/10/27 10:58:46;;;;;;;6.67;3.90;;;27.70;99.00;;;;;;5053418;28;20881;-72
2022/10/27 11:01:11;;;;;;;6.80;3.80;;;28.70;97.40;;;;;;5055423;28;20413;-73
2022/10/27 11:03:42;;;;;;;11.07;3.20;;;30.20;93.40;;;;;;5054589;28;20416;-73
2022/10/27 11:06:20;;;;;;;10.07;3.37;;;30.40;91.10;;;;;;5036928;28;20219;-72
2022/10/27 11:09:08;;;;;;;8.80;3.83;;;30.60;92.20;;;;;;5054738;28;20477;-73
2022/10/27 11:11:37;;;;;;;6.10;3.13;;;30.80;89.60;;;;;;5054523;28;20775;-73
2022/10/27 11:14:09;;;;;;;4.50;2.90;;;30.60;88.10;;;;;;5054219;28;20401;-72
2022/10/27 11:16:36;;;;;;;9.60;3.17;;;31.60;84.50;;;;;;5054607;28;20381;-73
2022/10/27 11:19:05;;;;;;;5.07;2.60;;;32.50;84.50;;;;;;5054357;28;20425;-72
2022/10/27 11:21:55;;;;;;;5.40;2.70;;;32.70;79.10;;;;;;5054800;28;20770;-72
2022/10/27 11:24:39;;;;;;;4.67;2.60;;;33.00;75.30;;;;;;5054704;28;20381;-73
2022/10/27 11:27:12;;;;;;;3.87;2.50;;;31.20;77.30;;;;;;5054173;28;20409;-75
2022/10/27 11:30:02;;;;;;;4.47;2.37;;;30.20;79.80;;;;;;5053140;28;20976;-73
2022/10/27 11:32:59;;;;;;;4.60;2.23;;;32.80;76.30;;;;;;5054469;28;20493;-73
2022/10/27 11:35:36;;;;;;;3.30;2.20;;;34.30;74.20;;;;;;5054735;28;20789;-73
2022/10/27 11:38:18;;;;;;;7.07;2.47;;;35.50;70.70;;;;;;5054531;28;20841;-73
2022/10/27 11:41:14;;;;;;;6.97;2.23;;;36.30;65.00;;;;;;5054325;28;20488;-72
2022/10/27 11:43:41;;;;;;;4.70;2.30;;;35.70;63.80;;;;;;5053980;28;20834;-74
2022/10/27 11:46:21;;;;;;;6.33;2.30;;;35.80;62.60;;;;;;5054152;28;20424;-73
2022/10/27 11:49:10;;;;;;;7.60;2.53;;;36.30;63.30;;;;;;5036100;28;20725;-73
2022/10/27 11:51:54;;;;;;;10.70;2.70;;;36.50;62.10;;;;;;5054259;28;20389;-73
2022/10/27 11:54:20;;;;;;;4.70;2.27;;;36.30;58.60;;;;;;5054157;28;20409;-73
2022/10/27 11:56:57;;;;;;;3.30;2.53;;;35.30;60.90;;;;;;5053561;28;20919;-73
2022/10/27 12:00:02;;;;;;;6.57;2.20;;;34.90;62.20;;;;;;5052334;28;20425;-73
2022/10/27 12:02:38;;;;;;;5.67;2.23;;;35.80;63.60;;;;;;4992412;28;20430;-72
2022/10/27 12:05:28;;;;;;;6.07;2.40;;;36.80;61.00;;;;;;5047642;28;20779;-73
2022/10/27 12:08:26;;;;;;;4.53;2.57;;;37.20;57.50;;;;;;5035355;28;20511;-71
2022/10/27 12:11:18;;;;;;;4.60;2.50;;;36.80;61.20;;;;;;5032915;28;20471;-70
2022/10/27 12:14:05;;;;;;;10.03;4.90;;;36.80;59.50;;;;;;5051220;28;20504;-71
2022/10/27 12:16:39;;;;;;;6.50;2.70;;;36.80;58.60;;;;;;5053616;28;20871;-72
2022/10/27 12:19:16;;;;;;;5.10;2.40;;;36.40;59.70;;;;;;5054652;28;20446;-72
2022/10/27 12:21:43;;;;;;;6.40;2.60;;;36.70;60.10;;;;;;5053894;28;20473;-71
2022/10/27 12:24:33;;;;;;;3.83;2.53;;;37.40;59.20;;;;;;5053295;28;20413;-72
2022/10/27 12:27:06;;;;;;;6.20;2.10;;;37.70;57.10;;;;;;5053250;28;20915;-71
2022/10/27 12:29:38;;;;;;;5.13;2.50;;;37.80;55.60;;;;;;5052627;28;20472;-72
2022/10/27 12:32:36;;;;;;;3.43;2.40;;;37.50;57.60;;;;;;5053196;28;20408;-72
2022/10/27 12:35:23;;;;;;;4.87;2.53;;;37.00;57.10;;;;;;5052467;28;20409;-72
2022/10/27 12:38:17;;;;;;;11.37;2.20;;;37.60;57.30;;;;;;5052978;28;20448;-72
2022/10/27 12:41:20;;;;;;;6.90;2.43;;;37.60;55.70;;;;;;5047332;28;20417;-71
2022/10/27 12:43:58;;;;;;;6.70;3.03;;;37.20;56.60;;;;;;5034093;28;20420;-72
2022/10/27 12:46:29;;;;;;;5.50;2.07;;;36.70;56.80;;;;;;5053297;28;20954;-73
2022/10/27 12:49:01;;;;;;;8.60;2.67;;;36.40;57.80;;;;;;5053313;28;20476;-76
2022/10/27 12:51:58;;;;;;;12.60;2.47;;;36.90;57.30;;;;;;5049509;28;20413;-73
2022/10/27 12:54:58;;;;;;;10.40;2.87;;;37.60;56.10;;;;;;5048478;28;20412;-73
2022/10/27 12:57:45;;;;;;;7.57;2.37;;;38.10;55.10;;;;;;5052845;28;20776;-72
2022/10/27 13:00:13;;;;;;;5.43;2.23;;;37.40;54.00;;;;;;5050924;28;20417;-73
2022/10/27 13:02:58;;;;;;;6.60;2.47;;;37.30;55.50;;;;;;5052595;28;20397;-71